Time;durP1;ratioP1;P1;durP2;ratioP2;P2;SDS_P1;SDS_P2;PMS_P1;PMS_P2;Temp;Humidity;BMP_temperature;BMP_pressure;BME280_temperature;BME280_humidity;BME280_pressure;Samples;Min_cycle;Max_cycle;Signal;HPM_P1;HPM_P2
2021/11/10 00:01:18;;;;;;;4.13;1.77;;;3.70;99.90;;;;;;5081829;28;20424;-64
2021/11/10 00:03:44;;;;;;;9.07;1.95;;;3.70;99.90;;;;;;5082321;28;20090;-64
2021/11/10 00:06:09;;;;;;;3.97;1.60;;;3.70;99.90;;;;;;5081081;28;20040;-64
2021/11/10 00:08:35;;;;;;;3.30;1.45;;;3.60;99.90;;;;;;5082438;28;20068;-63
2021/11/10 00:11:00;;;;;;;2.60;1.45;;;3.60;99.90;;;;;;5081634;28;20498;-64
2021/11/10 00:13:27;;;;;;;8.32;1.90;;;3.60;99.90;;;;;;5082043;28;20029;-64
2021/11/10 00:15:53;;;;;;;5.00;1.77;;;3.60;99.90;;;;;;5080996;27;20032;-64
2021/11/10 00:18:20;;;;;;;3.58;1.55;;;3.60;99.90;;;;;;5071304;28;20467;-64
2021/11/10 00:20:47;;;;;;;5.85;2.20;;;3.50;99.90;;;;;;5067448;28;20044;-64
2021/11/10 00:23:14;;;;;;;6.50;1.90;;;3.40;99.90;;;;;;5068699;28;20037;-64
2021/11/10 00:25:40;;;;;;;6.88;1.67;;;3.40;99.90;;;;;;5065603;28;20049;-64
2021/11/10 00:28:06;;;;;;;4.85;1.50;;;3.50;99.90;;;;;;5067428;28;20028;-64
2021/11/10 00:30:32;;;;;;;3.97;1.77;;;3.40;99.90;;;;;;5068179;28;20039;-64
2021/11/10 00:32:57;;;;;;;4.15;1.75;;;3.40;99.90;;;;;;5068532;28;20404;-64
2021/11/10 00:35:23;;;;;;;2.80;1.50;;;3.40;99.90;;;;;;5068564;28;20036;-64
2021/11/10 00:37:49;;;;;;;5.70;1.50;;;3.40;99.90;;;;;;5067278;28;20115;-64
2021/11/10 00:40:15;;;;;;;3.45;1.45;;;3.40;99.90;;;;;;5068862;28;20381;-64
2021/11/10 00:42:41;;;;;;;4.60;1.60;;;3.50;99.90;;;;;;5068412;28;20041;-64
2021/11/10 00:45:07;;;;;;;5.53;1.85;;;3.40;99.90;;;;;;5069127;28;20116;-64
2021/11/10 00:47:33;;;;;;;7.38;2.08;;;3.50;99.90;;;;;;5066018;28;20490;-64
2021/11/10 00:49:59;;;;;;;5.30;1.73;;;3.50;99.90;;;;;;5068175;28;20508;-64
2021/11/10 00:52:25;;;;;;;2.03;1.33;;;3.50;99.90;;;;;;5068535;28;20476;-64
2021/11/10 00:54:52;;;;;;;5.13;1.80;;;3.50;99.90;;;;;;5068317;28;20040;-64
2021/11/10 00:57:18;;;;;;;3.95;1.48;;;3.60;99.90;;;;;;5066817;28;20102;-64
2021/11/10 00:59:43;;;;;;;4.78;1.80;;;3.60;99.90;;;;;;5068044;28;20048;-64
2021/11/10 01:02:09;;;;;;;4.97;1.90;;;3.60;99.90;;;;;;5068122;28;20124;-64
2021/11/10 01:04:35;;;;;;;3.85;1.70;;;3.60;99.90;;;;;;5067986;28;20046;-64
2021/11/10 01:07:01;;;;;;;8.00;1.58;;;3.60;99.90;;;;;;5067001;28;20037;-64
2021/11/10 01:09:27;;;;;;;4.03;1.38;;;3.60;99.90;;;;;;5070478;28;20040;-64
2021/11/10 01:11:53;;;;;;;2.35;1.15;;;3.70;99.90;;;;;;5069458;28;20040;-63
2021/11/10 01:14:19;;;;;;;2.80;1.60;;;3.60;99.90;;;;;;5069105;28;20124;-64
2021/11/10 01:16:47;;;;;;;9.05;1.85;;;3.70;99.90;;;;;;5065541;28;20071;-64
2021/11/10 01:19:13;;;;;;;6.85;1.70;;;3.60;99.90;;;;;;5067735;28;20441;-64
2021/11/10 01:21:39;;;;;;;3.60;1.55;;;3.60;99.90;;;;;;5068597;28;20043;-64
2021/11/10 01:24:05;;;;;;;3.05;1.70;;;3.50;99.90;;;;;;5068512;28;20040;-64
2021/11/10 01:26:32;;;;;;;3.42;1.50;;;3.50;99.90;;;;;;5066816;28;20514;-64
2021/11/10 01:28:57;;;;;;;10.02;1.42;;;3.40;99.90;;;;;;5066309;28;20109;-64
2021/11/10 01:31:23;;;;;;;3.83;1.60;;;3.40;99.90;;;;;;5066794;28;20496;-64
2021/11/10 01:33:49;;;;;;;5.38;2.00;;;3.40;99.90;;;;;;5066388;28;20047;-64
2021/11/10 01:36:16;;;;;;;3.95;1.70;;;3.50;99.90;;;;;;5065308;28;20119;-64
2021/11/10 01:38:42;;;;;;;7.10;2.78;;;3.50;99.90;;;;;;5065632;28;20036;-63
2021/11/10 01:41:08;;;;;;;5.63;1.77;;;3.50;99.90;;;;;;5067814;28;20043;-63
2021/11/10 01:43:35;;;;;;;6.03;2.05;;;3.50;99.90;;;;;;5067255;28;20066;-64
2021/11/10 01:46:01;;;;;;;7.85;2.28;;;3.60;99.90;;;;;;5065417;28;20040;-64
2021/11/10 01:48:27;;;;;;;7.75;1.67;;;3.50;99.90;;;;;;5066536;28;20044;-64
2021/11/10 01:50:52;;;;;;;3.25;1.30;;;3.50;99.90;;;;;;5067463;28;20373;-64
2021/11/10 01:53:18;;;;;;;6.95;1.83;;;3.50;99.90;;;;;;5067104;28;20479;-64
2021/11/10 01:55:44;;;;;;;6.28;2.35;;;3.40;99.90;;;;;;5066935;28;20048;-64
2021/11/10 01:58:10;;;;;;;5.18;1.50;;;3.40;99.90;;;;;;5066213;28;20033;-64
2021/11/10 02:00:40;;;;;;;5.55;2.40;;;3.40;99.90;;;;;;5065919;28;20044;-64
2021/11/10 02:03:07;;;;;;;4.93;1.60;;;3.40;99.90;;;;;;5067099;28;20041;-64
2021/11/10 02:05:33;;;;;;;6.18;1.67;;;3.40;99.90;;;;;;5065901;28;20139;-64
2021/11/10 02:07:58;;;;;;;6.05;1.95;;;3.40;99.90;;;;;;5065741;28;20123;-63
2021/11/10 02:10:25;;;;;;;8.07;1.98;;;3.50;99.90;;;;;;5066708;28;20132;-64
2021/11/10 02:12:53;;;;;;;4.57;1.67;;;3.40;99.90;;;;;;5066772;28;20052;-64
2021/11/10 02:15:19;;;;;;;6.88;1.77;;;3.40;99.90;;;;;;5066185;28;20066;-64
2021/11/10 02:17:55;;;;;;;3.08;1.48;;;3.40;99.90;;;;;;5065409;28;20047;-64
2021/11/10 02:20:22;;;;;;;2.83;1.52;;;3.40;99.90;;;;;;5066522;28;20064;-64
2021/11/10 02:22:51;;;;;;;4.88;1.63;;;3.50;99.90;;;;;;5066680;28;20040;-64
2021/11/10 02:25:16;;;;;;;4.80;1.58;;;3.50;99.90;;;;;;5067001;28;20033;-64
2021/11/10 02:27:42;;;;;;;4.80;1.60;;;3.50;99.90;;;;;;5065459;28;20616;-64
2021/11/10 02:30:12;;;;;;;3.75;1.52;;;3.50;99.90;;;;;;5065051;28;20101;-64
2021/11/10 02:32:40;;;;;;;2.83;1.50;;;3.50;99.90;;;;;;5065718;28;20072;-64
2021/11/10 02:35:06;;;;;;;3.70;1.67;;;3.40;99.90;;;;;;5066174;28;20070;-64
2021/11/10 02:37:34;;;;;;;6.97;1.88;;;3.40;99.90;;;;;;5065188;28;20187;-64
2021/11/10 02:40:00;;;;;;;3.15;1.45;;;3.30;99.90;;;;;;5065821;28;20107;-64
2021/11/10 02:42:26;;;;;;;13.45;2.67;;;;;;;;;;5066586;28;20115;-64
2021/11/10 02:44:53;;;;;;;4.05;1.23;;;;;;;;;;5065718;28;20033;-64
2021/11/10 02:47:19;;;;;;;5.15;1.73;;;;;;;;;;5064372;28;20071;-64
2021/11/10 02:49:46;;;;;;;5.28;1.48;;;;;;;;;;5066877;28;20098;-64
2021/11/10 02:52:17;;;;;;;5.40;1.63;;;;;;;;;;5066505;28;20047;-64
2021/11/10 02:54:46;;;;;;;2.97;1.30;;;;;;;;;;5066219;28;20098;-64
2021/11/10 02:57:12;;;;;;;3.55;1.58;;;;;;;;;;5064819;28;20044;-64
2021/11/10 02:59:39;;;;;;;2.63;1.48;;;;;;;;;;5065365;28;20497;-64
2021/11/10 03:02:05;;;;;;;2.85;1.77;;;;;;;;;;5064111;28;20028;-64
2021/11/10 03:04:32;;;;;;;6.28;1.83;;;;;;;;;;5065434;28;20040;-64
2021/11/10 03:06:58;;;;;;;5.60;2.00;;;;;;;;;;5064267;28;20032;-64
2021/11/10 03:09:25;;;;;;;5.95;1.85;;;;;;;;;;5066343;28;20131;-64
2021/11/10 03:11:53;;;;;;;6.00;1.80;;;;;;;;;;5066512;28;20082;-64
2021/11/10 03:14:19;;;;;;;3.00;1.50;;;;;;;;;;5065216;28;20044;-64
2021/11/10 03:16:45;;;;;;;3.05;1.50;;;;;;;;;;5064688;28;20043;-64
2021/11/10 03:19:11;;;;;;;4.95;1.92;;;;;;;;;;5065713;28;20400;-63
2021/11/10 03:21:38;;;;;;;3.10;1.60;;;;;;;;;;5066648;28;20033;-64
2021/11/10 03:24:04;;;;;;;8.45;1.70;;;;;;;;;;5065130;28;20071;-64
2021/11/10 03:26:30;;;;;;;3.42;1.40;;;;;;;;;;5063628;28;20127;-63
2021/11/10 03:28:56;;;;;;;4.60;1.85;;;;;;;;;;5065380;28;20124;-64
2021/11/10 03:31:22;;;;;;;4.95;1.50;;;;;;;;;;5050640;28;20526;-63
2021/11/10 03:33:48;;;;;;;3.88;1.60;;;;;;;;;;5046223;28;20033;-64
2021/11/10 03:36:15;;;;;;;4.47;1.83;;;;;;;;;;5043846;28;20047;-64
2021/11/10 03:38:41;;;;;;;4.70;2.00;;;;;;;;;;5046588;28;20493;-64
2021/11/10 03:41:07;;;;;;;11.10;1.80;;;;;;;;;;5045319;28;20073;-64
2021/11/10 03:43:35;;;;;;;5.47;2.10;;;;;;;;;;5046531;28;20661;-64
2021/11/10 03:46:02;;;;;;;4.75;1.67;;;;;;;;;;5051846;28;20050;-64
2021/11/10 03:48:30;;;;;;;4.57;1.90;;;;;;;;;;5058070;28;20672;-64
2021/11/10 03:50:59;;;;;;;4.18;1.73;;;;;;;;;;5046625;28;20681;-64
2021/11/10 03:53:25;;;;;;;4.82;1.90;;;;;;;;;;5048804;28;20079;-64
2021/11/10 03:55:51;;;;;;;6.28;1.40;;;;;;;;;;5049337;28;20040;-64
2021/11/10 03:58:18;;;;;;;4.20;1.73;;;;;;;;;;5055378;28;20120;-63
2021/11/10 04:00:47;;;;;;;5.40;2.08;;;;;;;;;;5049246;28;20041;-63
2021/11/10 04:03:19;;;;;;;7.95;1.60;;;;;;;;;;5050313;28;20045;-64
2021/11/10 04:05:45;;;;;;;3.17;1.50;;;;;;;;;;5049042;28;20052;-63
2021/11/10 04:08:18;;;;;;;4.10;1.52;;;;;;;;;;5057543;28;20048;-64
2021/11/10 04:10:49;;;;;;;4.35;1.50;;;;;;;;;;5063105;28;20047;-64
2021/11/10 04:13:15;;;;;;;5.35;2.30;;;;;;;;;;5055430;28;20091;-64
2021/11/10 04:15:44;;;;;;;3.75;1.80;;;;;;;;;;5044794;28;20127;-64
2021/11/10 04:18:11;;;;;;;4.75;1.85;;;;;;;;;;5072142;28;20037;-64
2021/11/10 04:20:37;;;;;;;3.40;2.00;;;;;;;;;;5049271;28;20120;-64
2021/11/10 04:23:08;;;;;;;3.95;2.00;;;;;;;;;;5049182;28;20047;-64
2021/11/10 04:25:34;;;;;;;4.28;1.55;;;;;;;;;;5048292;28;20033;-64
2021/11/10 04:28:00;;;;;;;3.95;1.95;;;;;;;;;;5054283;28;20041;-64
2021/11/10 04:30:27;;;;;;;6.57;1.80;;;;;;;;;;5047908;28;20132;-64
2021/11/10 04:32:56;;;;;;;5.40;1.90;;;;;;;;;;5050051;28;20049;-64
2021/11/10 04:35:22;;;;;;;3.42;1.60;;;;;;;;;;5048809;28;20485;-64
2021/11/10 04:37:48;;;;;;;3.33;1.60;;;;;;;;;;5052958;28;20078;-64
2021/11/10 04:40:15;;;;;;;4.40;1.67;;;;;;;;;;5061312;28;20056;-64
2021/11/10 04:42:41;;;;;;;7.03;1.77;;;;;;;;;;5069470;28;20043;-64
2021/11/10 04:45:10;;;;;;;5.07;1.83;;;;;;;;;;5067629;28;20429;-64
2021/11/10 04:47:37;;;;;;;6.88;2.03;;;;;;;;;;5047005;28;20144;-64
2021/11/10 04:50:06;;;;;;;4.43;1.98;;;;;;;;;;5049858;28;20139;-64
2021/11/10 04:52:33;;;;;;;4.25;1.80;;;;;;;;;;5049085;28;20098;-64
2021/11/10 04:54:59;;;;;;;5.93;2.55;;;;;;;;;;5049094;28;20033;-63
2021/11/10 04:57:28;;;;;;;4.85;2.20;;;;;;;;;;5047486;28;20041;-65
2021/11/10 04:59:58;;;;;;;5.25;1.90;;;;;;;;;;5048402;28;20047;-63
2021/11/10 05:02:25;;;;;;;6.93;2.05;;;;;;;;;;5048283;28;20102;-63
2021/11/10 05:04:52;;;;;;;3.90;2.10;;;;;;;;;;5048680;28;20132;-62
2021/11/10 05:07:18;;;;;;;7.55;2.00;;;;;;;;;;5046272;28;20045;-66
2021/11/10 05:09:49;;;;;;;5.15;2.40;;;;;;;;;;5048665;28;20025;-64
2021/11/10 05:12:18;;;;;;;5.32;2.30;;;;;;;;;;5047865;28;20037;-64
2021/11/10 05:14:47;;;;;;;8.48;2.20;;;;;;;;;;5049235;28;20048;-64
2021/11/10 05:17:14;;;;;;;5.22;1.85;;;;;;;;;;5045352;28;20041;-64
2021/11/10 05:19:40;;;;;;;8.10;1.70;;;;;;;;;;5049847;28;20041;-64
2021/11/10 05:22:06;;;;;;;3.30;1.83;;;;;;;;;;5046077;28;20029;-64
2021/11/10 05:24:32;;;;;;;5.88;2.25;;;;;;;;;;5045591;28;20041;-64
2021/11/10 05:26:59;;;;;;;12.32;2.67;;;;;;;;;;5046306;28;20045;-64
2021/11/10 05:29:25;;;;;;;9.82;2.47;;;;;;;;;;5046551;28;20040;-63
2021/11/10 05:31:59;;;;;;;4.20;2.10;;;;;;;;;;5036662;28;20186;-63
2021/11/10 05:34:26;;;;;;;6.10;2.35;;;;;;;;;;5049789;28;20037;-64
2021/11/10 05:36:53;;;;;;;7.85;2.08;;;;;;;;;;5045076;28;20041;-64
2021/11/10 05:39:19;;;;;;;6.72;2.00;;;;;;;;;;5046087;28;20072;-63
2021/11/10 05:41:50;;;;;;;5.60;2.20;;;;;;;;;;5047543;28;20567;-63
2021/11/10 05:44:19;;;;;;;5.72;2.53;;;;;;;;;;5048533;28;20047;-63
2021/11/10 05:46:50;;;;;;;8.02;2.10;;;;;;;;;;5046240;28;20563;-63
2021/11/10 05:49:17;;;;;;;6.45;2.33;;;;;;;;;;5045809;28;20044;-63
2021/11/10 05:51:50;;;;;;;3.28;1.92;;;;;;;;;;5047154;28;20409;-63
2021/11/10 05:54:20;;;;;;;2.63;1.70;;;;;;;;;;5048201;28;20044;-63
2021/11/10 05:57:03;;;;;;;4.22;2.25;;;;;;;;;;5045926;28;20038;-63
2021/11/10 05:59:30;;;;;;;4.38;1.92;;;;;;;;;;5039468;28;20086;-64
2021/11/10 06:01:56;;;;;;;6.20;2.42;;;;;;;;;;5047489;28;20037;-63
2021/11/10 06:04:26;;;;;;;5.28;1.80;;;;;;;;;;5047861;28;20037;-63
2021/11/10 06:06:55;;;;;;;4.97;1.73;;;;;;;;;;5045115;28;20041;-63
2021/11/10 06:09:28;;;;;;;3.03;1.50;;;;;;;;;;5045101;28;20037;-64
2021/11/10 06:11:54;;;;;;;4.57;1.90;;;;;;;;;;5047929;28;20037;-61
2021/11/10 06:14:20;;;;;;;4.70;1.98;;;;;;;;;;5048341;28;20051;-63
2021/11/10 06:16:48;;;;;;;5.05;2.08;;;;;;;;;;5046138;28;20580;-63
2021/11/10 06:19:16;;;;;;;8.02;2.05;;;;;;;;;;5043433;28;20037;-63
2021/11/10 06:21:45;;;;;;;9.43;1.92;;;;;;;;;;5047409;28;20025;-64
2021/11/10 06:24:14;;;;;;;4.55;1.95;;;;;;;;;;5048522;28;20041;-63
2021/11/10 06:26:43;;;;;;;6.80;2.50;;;;;;;;;;5044931;28;20060;-63
2021/11/10 06:29:14;;;;;;;4.28;2.22;;;;;;;;;;5045287;28;20037;-63
2021/11/10 06:31:41;;;;;;;4.32;2.25;;;;;;;;;;5043866;28;20055;-63
2021/11/10 06:34:09;;;;;;;3.28;1.88;;;;;;;;;;5046863;28;20489;-63
2021/11/10 06:36:42;;;;;;;5.00;2.08;;;;;;;;;;5045758;28;20682;-64
2021/11/10 06:39:08;;;;;;;3.97;2.00;;;;;;;;;;5044823;28;20032;-63
2021/11/10 06:41:34;;;;;;;4.55;1.63;;;;;;;;;;5048208;28;20493;-63
2021/11/10 06:44:01;;;;;;;4.85;1.90;;;;;;;;;;5047590;28;20124;-63
2021/11/10 06:46:27;;;;;;;5.97;1.60;;;;;;;;;;5036432;28;20044;-63
2021/11/10 06:48:54;;;;;;;10.15;2.65;;;;;;;;;;5045915;28;20076;-63
2021/11/10 06:51:20;;;;;;;2.88;1.98;;;;;;;;;;5043224;28;20045;-62
2021/11/10 06:53:49;;;;;;;7.63;2.15;;;;;;;;;;5037659;28;20051;-63
2021/11/10 06:56:16;;;;;;;11.73;5.15;;;;;;;;;;5042456;28;20110;-64
2021/11/10 06:58:42;;;;;;;5.10;2.30;;;;;;;;;;5044730;28;20036;-64
2021/11/10 07:01:09;;;;;;;3.78;1.60;;;;;;;;;;5034904;28;20050;-64
2021/11/10 07:03:36;;;;;;;4.00;2.20;;;;;;;;;;5038469;28;20034;-64
2021/11/10 07:06:02;;;;;;;5.13;2.33;;;;;;;;;;5035461;28;20053;-65
2021/11/10 07:08:28;;;;;;;13.98;5.63;;;;;;;;;;5040434;28;20048;-65
2021/11/10 07:10:54;;;;;;;11.18;5.10;;;;;;;;;;5039755;28;20041;-64
2021/11/10 07:13:20;;;;;;;6.25;3.03;;;;;;;;;;5039868;28;20037;-61
2021/11/10 07:15:46;;;;;;;66.07;26.70;;;;;;;;;;5046295;28;20450;-64
2021/11/10 07:18:12;;;;;;;64.43;28.20;;;;;;;;;;5045805;28;20123;-65
2021/11/10 07:20:38;;;;;;;19.05;6.72;;;;;;;;;;5046686;28;20485;-64
2021/11/10 07:23:05;;;;;;;5.78;2.88;;;;;;;;;;5066196;28;20052;-65
2021/11/10 07:25:31;;;;;;;7.38;2.75;;;;;;;;;;5048186;28;20456;-64
2021/11/10 07:27:57;;;;;;;11.73;5.68;;;;;;;;;;5045785;28;20029;-64
2021/11/10 07:30:23;;;;;;;137.98;54.80;;;;;;;;;;5043915;28;20047;-64
2021/11/10 07:32:49;;;;;;;67.47;29.02;;;;;;;;;;5050729;28;20052;-65
2021/11/10 07:35:18;;;;;;;15.73;7.50;;;;;;;;;;5051211;28;20039;-65
2021/11/10 07:37:46;;;;;;;15.43;6.93;;;;;;;;;;5048263;28;20033;-64
2021/11/10 07:40:13;;;;;;;24.00;7.63;;;;;;;;;;5051804;28;20072;-63
2021/11/10 07:42:39;;;;;;;4.82;2.80;;;;;;;;;;5051478;28;20131;-64
2021/11/10 07:45:09;;;;;;;5.63;2.53;;;;;;;;;;5051643;28;20045;-64
2021/11/10 07:47:40;;;;;;;6.57;2.88;;;;;;;;;;5047341;28;20048;-64
2021/11/10 07:50:08;;;;;;;6.25;2.45;;;;;;;;;;5049999;28;20554;-64
2021/11/10 07:52:34;;;;;;;4.72;2.17;;;;;;;;;;5051524;28;20104;-64
2021/11/10 07:55:00;;;;;;;6.78;2.28;;;;;;;;;;5051328;28;20056;-64
2021/11/10 07:57:26;;;;;;;11.73;2.30;;;;;;;;;;5048271;28;20123;-64
2021/11/10 07:59:52;;;;;;;6.30;2.22;;;;;;;;;;5051147;28;20643;-64
2021/11/10 08:02:20;;;;;;;3.65;2.28;;;;;;;;;;5051057;28;20063;-65
2021/11/10 08:04:46;;;;;;;6.60;2.70;;;;;;;;;;5051425;28;20051;-65
2021/11/10 08:07:12;;;;;;;4.68;2.63;;;;;;;;;;5047851;28;20037;-64
2021/11/10 08:09:38;;;;;;;9.43;2.70;;;;;;;;;;5050848;28;20041;-64
2021/11/10 08:12:05;;;;;;;6.03;2.67;;;;;;;;;;5051209;28;20094;-65
2021/11/10 08:14:31;;;;;;;8.88;2.30;;;;;;;;;;5049876;28;20516;-65
2021/11/10 08:16:57;;;;;;;7.40;2.30;;;;;;;;;;5047619;28;20041;-65
2021/11/10 08:19:25;;;;;;;4.60;2.50;;;;;;;;;;5047635;28;20092;-65
2021/11/10 08:21:51;;;;;;;5.80;2.30;;;;;;;;;;5049244;28;20523;-64
2021/11/10 08:24:17;;;;;;;8.88;2.45;;;;;;;;;;5050315;28;20400;-65
2021/11/10 08:26:43;;;;;;;7.30;3.45;;;;;;;;;;5048934;28;20029;-64
2021/11/10 08:29:09;;;;;;;22.33;10.65;;;;;;;;;;5050587;28;20136;-64
2021/11/10 08:31:35;;;;;;;11.35;5.75;;;;;;;;;;5049910;28;20444;-64
2021/11/10 08:34:01;;;;;;;7.80;3.50;;;;;;;;;;5064879;28;20068;-65
2021/11/10 08:36:27;;;;;;;20.40;11.10;;;;;;;;;;5047784;28;20044;-64
2021/11/10 08:38:54;;;;;;;52.63;24.35;;;;;;;;;;5049314;28;20041;-65
2021/11/10 08:41:21;;;;;;;14.60;6.20;;;;;;;;;;5051071;28;20037;-64
2021/11/10 08:43:47;;;;;;;9.63;3.97;;;;;;;;;;5049989;28;20040;-65
2021/11/10 08:46:13;;;;;;;7.05;3.30;;;;;;;;;;5063542;28;20533;-64
2021/11/10 08:48:39;;;;;;;8.77;3.95;;;;;;;;;;5047527;28;20045;-64
2021/11/10 08:51:06;;;;;;;9.25;4.30;;;;;;;;;;5050564;28;20041;-64
2021/11/10 08:53:32;;;;;;;15.40;8.10;;;;;;;;;;5050435;28;20037;-64
2021/11/10 08:55:58;;;;;;;19.35;4.57;;;;;;;;;;5047043;28;20048;-64
2021/11/10 08:58:26;;;;;;;7.15;2.58;;;;;;;;;;5049001;28;20068;-64
2021/11/10 09:00:52;;;;;;;9.73;2.40;;;;;;;;;;5049018;28;20029;-64
2021/11/10 09:03:20;;;;;;;9.48;2.08;;;;;;;;;;5049235;28;20037;-67
2021/11/10 09:05:46;;;;;;;12.75;2.83;;;;;;;;;;5049384;28;20480;-64
2021/11/10 09:08:12;;;;;;;4.75;2.05;;;;;;;;;;5048495;28;20048;-64
2021/11/10 09:10:38;;;;;;;6.68;2.20;;;;;;;;;;5050433;28;20532;-64
2021/11/10 09:13:05;;;;;;;39.20;4.47;;;;;;;;;;5050338;28;20047;-64
2021/11/10 09:15:32;;;;;;;4.50;2.20;;;;;;;;;;5049376;28;20115;-64
2021/11/10 09:17:58;;;;;;;6.13;2.03;;;;;;;;;;5047122;28;20049;-66
2021/11/10 09:20:25;;;;;;;7.53;1.65;;;;;;;;;;5049167;28;20033;-65
2021/11/10 09:22:52;;;;;;;4.03;1.75;;;;;;;;;;5050179;28;20485;-64
2021/11/10 09:25:19;;;;;;;4.43;1.10;;;;;;;;;;5049824;28;20045;-64
2021/11/10 09:27:45;;;;;;;11.88;5.05;;;;;;;;;;5045424;28;20045;-64
2021/11/10 09:30:13;;;;;;;8.38;3.05;;;;;;;;;;5050554;28;20045;-64
2021/11/10 09:32:40;;;;;;;7.03;3.28;;;;;;;;;;5049204;28;20036;-64
2021/11/10 09:35:07;;;;;;;4.63;1.60;;;;;;;;;;5049688;28;20064;-64
2021/11/10 09:37:34;;;;;;;17.17;8.40;;;;;;;;;;5046188;28;20401;-64
2021/11/10 09:40:00;;;;;;;5.20;1.77;;;;;;;;;;5046413;28;20043;-62
2021/11/10 09:42:26;;;;;;;2.47;1.05;;;;;;;;;;5048806;28;20047;-64
2021/11/10 09:44:55;;;;;;;3.55;1.00;;;;;;;;;;5048993;28;20065;-65
2021/11/10 09:47:21;;;;;;;2.08;1.00;;;;;;;;;;5037387;28;20049;-64
2021/11/10 09:49:47;;;;;;;2.13;0.75;;;;;;;;;;5048075;28;20497;-64
2021/11/10 09:52:14;;;;;;;3.65;1.30;;;;;;;;;;5049005;28;20079;-64
2021/11/10 09:54:40;;;;;;;11.00;2.63;;;;;;;;;;5048234;28;20057;-64
2021/11/10 09:57:06;;;;;;;;;;;;;;;;;;5047733;28;20072;-64
2021/11/10 09:59:32;;;;;;;22.27;9.82;;;;;;;;;;5048573;28;19917;-62
2021/11/10 10:01:59;;;;;;;24.83;13.45;;;;;;;;;;5048076;28;20041;-61
2021/11/10 10:04:25;;;;;;;7.85;4.35;;;;;;;;;;5048808;28;20697;-62
2021/11/10 10:06:52;;;;;;;4.10;2.33;;;;;;;;;;5046654;28;20097;-62
2021/11/10 10:09:18;;;;;;;4.50;1.70;;;;;;;;;;5044793;28;20036;-62
2021/11/10 10:11:45;;;;;;;4.25;1.60;;;;;;;;;;5046281;28;20115;-62
2021/11/10 10:14:11;;;;;;;5.78;1.63;;;;;;;;;;5048365;28;20045;-61
2021/11/10 10:16:37;;;;;;;;;;;;;;;;;;5045336;28;20060;-62
2021/11/10 10:19:07;;;;;;;3.75;1.27;;;;;;;;;;5041339;28;20307;-63
2021/11/10 10:21:33;;;;;;;5.03;1.92;;;;;;;;;;5040883;28;20773;-62
2021/11/10 10:24:00;;;;;;;3.08;1.73;;;;;;;;;;5046124;28;20094;-62
2021/11/10 10:26:27;;;;;;;4.45;2.00;;;;;;;;;;5045238;28;20052;-62
2021/11/10 10:28:55;;;;;;;7.88;2.00;;;;;;;;;;5037397;28;20064;-62
2021/11/10 10:31:22;;;;;;;2.00;1.50;;;;;;;;;;5040626;28;20511;-62
2021/11/10 10:33:49;;;;;;;2.50;1.60;;;;;;;;;;5038181;28;20629;-62
2021/11/10 10:36:20;;;;;;;4.53;1.65;;;;;;;;;;5046479;28;20044;-62
2021/11/10 10:39:06;;;;;;;2.80;1.70;;;;;;;;;;5045106;28;20109;-62
2021/11/10 10:41:33;;;;;;;3.13;1.95;;;;;;;;;;5042539;28;20118;-62
2021/11/10 10:44:07;;;;;;;4.13;1.45;;;;;;;;;;5047317;28;20461;-62
2021/11/10 10:46:34;;;;;;;2.92;1.30;;;;;;;;;;5042515;28;20493;-61
2021/11/10 10:49:13;;;;;;;3.95;1.58;;;;;;;;;;5060057;28;20420;-61
2021/11/10 10:51:40;;;;;;;3.05;1.55;;;;;;;;;;5067550;28;20044;-61
2021/11/10 10:54:07;;;;;;;2.97;1.20;;;;;;;;;;5067930;28;20040;-62
2021/11/10 10:56:35;;;;;;;3.22;1.70;;;;;;;;;;5065767;28;20109;-61
2021/11/10 10:59:02;;;;;;;3.03;1.95;;;;;;;;;;5066851;28;20044;-62
2021/11/10 11:01:30;;;;;;;4.50;1.80;;;;;;;;;;5066392;28;20086;-62
2021/11/10 11:04:05;;;;;;;5.50;1.42;;;;;;;;;;5067178;28;20099;-62
2021/11/10 11:06:35;;;;;;;3.67;1.90;;;;;;;;;;5070122;28;20044;-62
2021/11/10 11:09:14;;;;;;;2.10;1.10;;;;;;;;;;5066543;28;20038;-62
2021/11/10 11:11:46;;;;;;;4.18;1.40;;;;;;;;;;5067327;28;20040;-62
2021/11/10 11:14:25;;;;;;;3.17;1.45;;;;;;;;;;5066844;28;20552;-62
2021/11/10 11:17:04;;;;;;;14.68;4.90;;;;;;;;;;5065252;28;20047;-61
2021/11/10 11:19:33;;;;;;;7.15;2.50;;;;;;;;;;5067513;28;20037;-61
2021/11/10 11:21:59;;;;;;;14.00;6.95;;;;;;;;;;5066553;28;20053;-62
2021/11/10 11:24:33;;;;;;;6.38;3.53;;;;;;;;;;5067418;28;20044;-62
2021/11/10 11:27:19;;;;;;;10.85;4.43;;;;;;;;;;5065184;28;20040;-62
2021/11/10 11:29:52;;;;;;;5.07;2.90;;;;;;;;;;5063678;28;20032;-63
2021/11/10 11:32:23;;;;;;;8.27;2.92;;;;;;;;;;5064537;28;20483;-62
2021/11/10 11:34:57;;;;;;;8.30;2.70;;;;;;;;;;5064932;28;20036;-62
2021/11/10 11:37:23;;;;;;;5.20;2.33;;;;;;;;;;5063259;28;20047;-62
2021/11/10 11:39:51;;;;;;;4.72;2.83;;;;;;;;;;5067149;28;20033;-62
2021/11/10 11:42:18;;;;;;;4.72;1.90;;;;;;;;;;5067600;28;20097;-62
2021/11/10 11:44:44;;;;;;;3.60;1.60;;;;;;;;;;5098443;28;20048;-64
2021/11/10 11:47:10;;;;;;;2.83;1.50;;;;;;;;;;5064418;28;20040;-64
2021/11/10 11:49:40;;;;;;;4.82;2.00;;;;;;;;;;5066828;28;20049;-64
2021/11/10 11:52:12;;;;;;;3.95;2.17;;;;;;;;;;5067751;28;20107;-64
2021/11/10 11:54:41;;;;;;;3.35;1.70;;;;;;;;;;5064162;28;20112;-64
2021/11/10 11:57:08;;;;;;;3.83;1.90;;;;;;;;;;5061556;28;20048;-64
2021/11/10 11:59:35;;;;;;;6.00;1.67;;;;;;;;;;5064113;28;20040;-64
2021/11/10 12:02:18;;;;;;;4.85;1.77;;;;;;;;;;5067868;28;20496;-64
2021/11/10 12:04:45;;;;;;;5.10;2.10;;;;;;;;;;5047340;28;20041;-64
2021/11/10 12:07:11;;;;;;;6.60;3.50;;;;;;;;;;5045302;28;20049;-64
2021/11/10 12:09:37;;;;;;;7.00;2.80;;;;;;;;;;5066996;28;20036;-64
2021/11/10 12:12:03;;;;;;;;;;;;;;;;;;5067173;28;20115;-64
2021/11/10 12:14:31;;;;;;;4.50;2.03;;;;;;;;;;5068354;28;20003;-64
2021/11/10 12:17:05;;;;;;;7.93;2.55;;;;;;;;;;5077951;28;20041;-63
2021/11/10 12:19:33;;;;;;;4.50;2.38;;;;;;;;;;5062853;28;20101;-63
2021/11/10 12:22:02;;;;;;;6.05;2.22;;;;;;;;;;5062253;28;20036;-63
2021/11/10 12:24:42;;;;;;;5.53;2.05;;;;;;;;;;5069785;28;20036;-63
2021/11/10 12:27:16;;;;;;;4.10;1.92;;;;;;;;;;5068061;28;20049;-63
2021/11/10 12:30:03;;;;;;;3.03;1.60;;;;;;;;;;5071150;28;20032;-63
2021/11/10 12:32:29;;;;;;;6.45;2.00;;;;;;;;;;5063205;28;20048;-63
2021/11/10 12:34:55;;;;;;;4.68;1.90;;;;;;;;;;5068517;28;20094;-62
2021/11/10 12:37:26;;;;;;;3.88;2.20;;;;;;;;;;5067028;28;20037;-62
2021/11/10 12:40:00;;;;;;;5.15;2.28;;;;;;;;;;5067682;28;20044;-63
2021/11/10 12:42:39;;;;;;;5.88;2.10;;;;;;;;;;5069753;28;20062;-63
2021/11/10 12:45:05;;;;;;;3.97;2.00;;;;;;;;;;5069117;28;20086;-63
2021/11/10 12:47:46;;;;;;;5.88;1.77;;;;;;;;;;5063079;28;20052;-62
2021/11/10 12:50:23;;;;;;;4.03;1.58;;;;;;;;;;5063755;28;20036;-63
2021/11/10 12:52:49;;;;;;;2.70;1.45;;;;;;;;;;5066538;28;20037;-63
2021/11/10 12:55:17;;;;;;;4.65;2.00;;;;;;;;;;5066957;28;20064;-63
2021/11/10 12:57:43;;;;;;;3.60;1.83;;;;;;;;;;5064841;28;20059;-63
2021/11/10 13:00:09;;;;;;;;;;;;;;;;;;5069039;28;20083;-64
2021/11/10 13:02:36;;;;;;;2.80;1.40;;;;;;;;;;5070775;28;19916;-63
2021/11/10 13:05:03;;;;;;;5.75;2.28;;;;;;;;;;5070402;28;20055;-63
2021/11/10 13:07:34;;;;;;;6.35;2.53;;;;;;;;;;5066452;28;20258;-63
2021/11/10 13:10:08;;;;;;;4.38;1.88;;;;;;;;;;5070650;28;20127;-63
2021/11/10 13:12:35;;;;;;;3.78;2.10;;;;;;;;;;5070602;28;20115;-63
2021/11/10 13:15:03;;;;;;;4.68;1.55;;;;;;;;;;5070668;28;20587;-63
2021/11/10 13:17:30;;;;;;;5.47;2.45;;;;;;;;;;5066688;28;20131;-63
2021/11/10 13:19:57;;;;;;;7.75;3.10;;;;;;;;;;5069957;28;20089;-63
2021/11/10 13:22:41;;;;;;;6.53;3.13;;;;;;;;;;5070212;28;20442;-63
2021/11/10 13:25:07;;;;;;;6.43;3.22;;;;;;;;;;5069877;28;20695;-63
2021/11/10 13:27:33;;;;;;;;;;;;;;;;;;5066876;28;20032;-63
2021/11/10 13:30:00;;;;;;;8.45;3.10;;;;;;;;;;5066881;28;20622;-63
2021/11/10 13:32:26;;;;;;;8.02;3.60;;;;;;;;;;5049368;28;20076;-64
2021/11/10 13:35:00;;;;;;;7.78;4.13;;;;;;;;;;5048371;28;20028;-63
2021/11/10 13:37:27;;;;;;;7.60;3.95;;;;;;;;;;5048204;28;20116;-63
2021/11/10 13:39:59;;;;;;;9.85;4.00;;;;;;;;;;5049944;28;20048;-63
2021/11/10 13:42:27;;;;;;;7.63;3.33;;;;;;;;;;5049857;28;20132;-64
2021/11/10 13:45:06;;;;;;;9.32;3.20;;;;;;;;;;5049391;28;20033;-64
2021/11/10 13:47:32;;;;;;;4.70;2.88;;;;;;;;;;5065956;28;20480;-63
2021/11/10 13:49:58;;;;;;;5.25;2.38;;;;;;;;;;5066120;28;20548;-63
2021/11/10 13:52:24;;;;;;;6.70;3.38;;;;;;;;;;5068566;28;20087;-63
2021/11/10 13:54:53;;;;;;;3.47;2.10;;;;;;;;;;5069120;28;20074;-63
2021/11/10 13:57:19;;;;;;;7.03;2.55;;;;;;;;;;5065470;28;20053;-63
2021/11/10 13:59:45;;;;;;;;;;;;;;;;;;5068643;28;20488;-63
2021/11/10 14:02:16;;;;;;;7.22;2.25;;;;;;;;;;5052294;28;19923;-64
2021/11/10 14:04:48;;;;;;;4.07;2.00;;;;;;;;;;5049735;28;20088;-64
2021/11/10 14:07:16;;;;;;;7.50;2.13;;;;;;;;;;5045655;28;20047;-63
2021/11/10 14:09:51;;;;;;;3.58;2.15;;;;;;;;;;5045707;28;20032;-63
2021/11/10 14:12:36;;;;;;;4.00;2.03;;;;;;;;;;5046137;28;20107;-63
2021/11/10 14:15:05;;;;;;;7.97;2.30;;;;;;;;;;5048918;28;20382;-63
2021/11/10 14:17:33;;;;;;;9.43;1.90;;;;;;;;;;5065698;28;20036;-63
2021/11/10 14:20:01;;;;;;;4.75;1.80;;;;;;;;;;5065980;28;20047;-63
2021/11/10 14:22:29;;;;;;;3.75;1.77;;;;;;;;;;5068620;28;20040;-63
2021/11/10 14:24:55;;;;;;;6.95;2.17;;;;;;;;;;5069277;28;20028;-63